Maersk Wakamatsu — 3EZG — position and weather

sailwx.info

Track history (hours):
 
Tides and Currents Weather Stations Pressure Air Temp Water Temp Dewpoint Dewpoint Depression Visibility Wind Speed Wind Dir Waves Ship Positions

Maersk Wakamatsu

Last reported at 2016-Jun-22 02:03 UTC. Time now 2016-Jun-27 02:19 UTC.
Position N 10°56' W 061°25'.

Length 172 m; draft 8 m.

Type: Cargo ship. MMSI: 370484000.

Date/timePositionNaut miles runAvg speedWind from/ knotsBaromVisibWave heightAir tempDewpointWater temp
2016-Jun-22 02:03N 10°56' W 061°25'816.0
2016-Jun-22 01:33N 10°52' W 061°33'1616.0
2016-Jun-22 00:34N 10°43' W 061°46'1616.0
2016-Jun-21 23:33N 10°30' W 061°38'10 9.5
2016-Jun-21 22:33N 10°24' W 061°30'0 0.0
2016-Jun-21 21:33N 10°24' W 061°30'0 0.0
2016-Jun-21 20:30N 10°24' W 061°30'0 0.0
2016-Jun-21 19:33N 10°24' W 061°30'0 0.0
2016-Jun-21 18:33N 10°24' W 061°30'0 0.0
2016-Jun-21 17:33N 10°24' W 061°30'0 0.0
2016-Jun-21 16:33N 10°24' W 061°30'0 0.0
2016-Jun-21 15:33N 10°24' W 061°30'0 0.0
2016-Jun-21 14:33N 10°24' W 061°30'0 0.0
2016-Jun-21 13:33N 10°24' W 061°30'0 0.0
2016-Jun-21 12:30N 10°24' W 061°30'0 0.0
2016-Jun-21 11:24N 10°24' W 061°30'2 2.5
2016-Jun-21 10:33N 10°23' W 061°31'3 3.4
2016-Jun-21 09:33N 10°24' W 061°35'10 9.9
2016-Jun-21 08:33N 10°29' W 061°43'0 0.5
2016-Jun-21 07:33N 10°29' W 061°43'2 0.7
2016-Jun-21 04:33N 10°31' W 061°42'1 0.7
2016-Jun-21 03:33N 10°32' W 061°42'0 0.2
2016-Jun-21 02:33N 10°32' W 061°42'8 7.6
2016-Jun-21 01:33N 10°37' W 061°47'1110.7
2016-Jun-21 00:33N 10°48' W 061°51'  
2016-Jun-16 01:33N 09°43' W 079°19'1515.4
2016-Jun-16 00:33N 09°41' W 079°35'1211.6
2016-Jun-15 23:33N 09°34' W 079°45'1212.0
2016-Jun-15 22:33N 09°26' W 079°53'4 3.5
2016-Jun-15 21:31N 09°22' W 079°53'0 0.0
2016-Jun-15 20:32N 09°22' W 079°53'0 0.0
2016-Jun-15 19:31N 09°22' W 079°53'0 0.0
2016-Jun-15 18:32N 09°22' W 079°53'0 0.0
2016-Jun-15 17:31N 09°22' W 079°53'0 0.0
2016-Jun-15 16:32N 09°22' W 079°53'0 0.0
2016-Jun-15 15:22N 09°22' W 079°53'0 0.0
2016-Jun-15 14:31N 09°22' W 079°53'0 0.0
2016-Jun-15 13:31N 09°22' W 079°53'0 0.0
2016-Jun-15 12:31N 09°22' W 079°53'0 0.0
2016-Jun-15 11:29N 09°22' W 079°53'0 0.0
2016-Jun-15 10:32N 09°22' W 079°53'0 0.0
2016-Jun-15 09:31N 09°22' W 079°53'0 0.0
2016-Jun-15 08:29N 09°22' W 079°53'0 0.0
2016-Jun-15 07:32N 09°22' W 079°53'0 0.0
2016-Jun-15 06:31N 09°22' W 079°53'0 0.0
2016-Jun-15 05:28N 09°22' W 079°53'0 0.0
2016-Jun-15 04:32N 09°22' W 079°53'0 0.0
2016-Jun-15 03:32N 09°22' W 079°53'0 0.0
2016-Jun-15 02:31N 09°22' W 079°53'0 0.0
2016-Jun-15 01:31N 09°22' W 079°53'0 0.0
2016-Jun-15 00:32N 09°22' W 079°53'0 0.0
2016-Jun-14 23:32N 09°22' W 079°53'0 0.0
2016-Jun-14 22:34N 09°22' W 079°53'3 3.1
2016-Jun-14 21:33N 09°25' W 079°54'3 2.6
2016-Jun-14 20:34N 09°26' W 079°51'0 0.4
2016-Jun-14 19:31N 09°26' W 079°51'0 0.0
2016-Jun-14 18:30N 09°26' W 079°51'0 0.0
2016-Jun-14 17:30N 09°26' W 079°51'0 0.0
2016-Jun-14 16:33N 09°26' W 079°51'0 0.0
2016-Jun-14 15:33N 09°26' W 079°51'0 0.0
2016-Jun-14 14:31N 09°26' W 079°51'0 0.0
2016-Jun-14 13:33N 09°26' W 079°51'0 0.0
2016-Jun-14 12:31N 09°26' W 079°51'0 0.0
2016-Jun-14 11:33N 09°26' W 079°51'0 0.0
2016-Jun-14 10:31N 09°26' W 079°51'3 2.9
2016-Jun-14 09:33N 09°29' W 079°51'1212.1
2016-Jun-14 08:34N 09°41' W 079°50'1615.4
2016-Jun-14 07:32N 09°48' W 079°36'2016.0
2016-Jun-14 06:16N 09°55' W 079°16'  
Track history (hours):
 
Tides and Currents Weather Stations Pressure Air Temp Water Temp Dewpoint Dewpoint Depression Visibility Wind Speed Wind Dir Waves Ship Positions

Maersk Wakamatsu

Last reported at 2016-Jun-22 02:03 UTC. Time now 2016-Jun-27 02:19 UTC.
Position N 10°56' W 061°25'.

Length 172 m; draft 8 m.

Type: Cargo ship. MMSI: 370484000.

Date/timePositionNaut miles runAvg speedWind from/ knotsBaromVisibWave heightAir tempDewpointWater temp
2016-Jun-22 02:03N 10°56' W 061°25'816.0
2016-Jun-22 01:33N 10°52' W 061°33'1616.0
2016-Jun-22 00:34N 10°43' W 061°46'1616.0
2016-Jun-21 23:33N 10°30' W 061°38'10 9.5
2016-Jun-21 22:33N 10°24' W 061°30'0 0.0
2016-Jun-21 21:33N 10°24' W 061°30'0 0.0
2016-Jun-21 20:30N 10°24' W 061°30'0 0.0
2016-Jun-21 19:33N 10°24' W 061°30'0 0.0
2016-Jun-21 18:33N 10°24' W 061°30'0 0.0
2016-Jun-21 17:33N 10°24' W 061°30'0 0.0
2016-Jun-21 16:33N 10°24' W 061°30'0 0.0
2016-Jun-21 15:33N 10°24' W 061°30'0 0.0
2016-Jun-21 14:33N 10°24' W 061°30'0 0.0
2016-Jun-21 13:33N 10°24' W 061°30'0 0.0
2016-Jun-21 12:30N 10°24' W 061°30'0 0.0
2016-Jun-21 11:24N 10°24' W 061°30'2 2.5
2016-Jun-21 10:33N 10°23' W 061°31'3 3.4
2016-Jun-21 09:33N 10°24' W 061°35'10 9.9
2016-Jun-21 08:33N 10°29' W 061°43'0 0.5
2016-Jun-21 07:33N 10°29' W 061°43'2 0.7
2016-Jun-21 04:33N 10°31' W 061°42'1 0.7
2016-Jun-21 03:33N 10°32' W 061°42'0 0.2
2016-Jun-21 02:33N 10°32' W 061°42'8 7.6
2016-Jun-21 01:33N 10°37' W 061°47'1110.7
2016-Jun-21 00:33N 10°48' W 061°51'  
2016-Jun-16 01:33N 09°43' W 079°19'1515.4
2016-Jun-16 00:33N 09°41' W 079°35'1211.6
2016-Jun-15 23:33N 09°34' W 079°45'1212.0
2016-Jun-15 22:33N 09°26' W 079°53'4 3.5
2016-Jun-15 21:31N 09°22' W 079°53'0 0.0
2016-Jun-15 20:32N 09°22' W 079°53'0 0.0
2016-Jun-15 19:31N 09°22' W 079°53'0 0.0
2016-Jun-15 18:32N 09°22' W 079°53'0 0.0
2016-Jun-15 17:31N 09°22' W 079°53'0 0.0
2016-Jun-15 16:32N 09°22' W 079°53'0 0.0
2016-Jun-15 15:22N 09°22' W 079°53'0 0.0
2016-Jun-15 14:31N 09°22' W 079°53'0 0.0
2016-Jun-15 13:31N 09°22' W 079°53'0 0.0
2016-Jun-15 12:31N 09°22' W 079°53'0 0.0
2016-Jun-15 11:29N 09°22' W 079°53'0 0.0
2016-Jun-15 10:32N 09°22' W 079°53'0 0.0
2016-Jun-15 09:31N 09°22' W 079°53'0 0.0
2016-Jun-15 08:29N 09°22' W 079°53'0 0.0
2016-Jun-15 07:32N 09°22' W 079°53'0 0.0
2016-Jun-15 06:31N 09°22' W 079°53'0 0.0
2016-Jun-15 05:28N 09°22' W 079°53'0 0.0
2016-Jun-15 04:32N 09°22' W 079°53'0 0.0
2016-Jun-15 03:32N 09°22' W 079°53'0 0.0
2016-Jun-15 02:31N 09°22' W 079°53'0 0.0
2016-Jun-15 01:31N 09°22' W 079°53'0 0.0
2016-Jun-15 00:32N 09°22' W 079°53'0 0.0
2016-Jun-14 23:32N 09°22' W 079°53'0 0.0
2016-Jun-14 22:34N 09°22' W 079°53'3 3.1
2016-Jun-14 21:33N 09°25' W 079°54'3 2.6
2016-Jun-14 20:34N 09°26' W 079°51'0 0.4
2016-Jun-14 19:31N 09°26' W 079°51'0 0.0
2016-Jun-14 18:30N 09°26' W 079°51'0 0.0
2016-Jun-14 17:30N 09°26' W 079°51'0 0.0
2016-Jun-14 16:33N 09°26' W 079°51'0 0.0
2016-Jun-14 15:33N 09°26' W 079°51'0 0.0
2016-Jun-14 14:31N 09°26' W 079°51'0 0.0
2016-Jun-14 13:33N 09°26' W 079°51'0 0.0
2016-Jun-14 12:31N 09°26' W 079°51'0 0.0
2016-Jun-14 11:33N 09°26' W 079°51'0 0.0
2016-Jun-14 10:31N 09°26' W 079°51'3 2.9
2016-Jun-14 09:33N 09°29' W 079°51'1212.1
2016-Jun-14 08:34N 09°41' W 079°50'1615.4
2016-Jun-14 07:32N 09°48' W 079°36'2016.0
2016-Jun-14 06:16N 09°55' W 079°16'  

Dump ship's entire track history